Time;durP1;ratioP1;P1;durP2;ratioP2;P2;SDS_P1;SDS_P2;PMS_P1;PMS_P2;Temp;Humidity;BMP_temperature;BMP_pressure;BME280_temperature;BME280_humidity;BME280_pressure;Samples;Min_cycle;Max_cycle;Signal;HPM_P1;HPM_P2
2022/09/20 00:01:39;;;;;;;;;;;;;;;;;;6185004;23;20348;-79
2022/09/20 00:04:05;;;;;;;;;;;;;;;;;;6184713;23;19908;-79
2022/09/20 00:06:30;;;;;;;;;;;;;;;;;;6186115;23;19962;-79
2022/09/20 00:08:56;;;;;;;;;;;;;;;;;;6186010;23;19912;-79
2022/09/20 00:11:21;;;;;;;;;;;;;;;;;;6160289;23;19904;-79
2022/09/20 00:13:47;;;;;;;;;;;;;;;;;;6186308;23;19963;-79
2022/09/20 00:16:12;;;;;;;;;;;;;;;;;;6186494;23;19911;-79
2022/09/20 00:18:37;;;;;;;;;;;;;;;;;;6186763;23;19914;-79
2022/09/20 00:21:02;;;;;;;;;;;;;;;;;;6186372;23;19999;-79
2022/09/20 00:23:29;;;;;;;;;;;;;;;;;;6186686;23;20363;-79
2022/09/20 00:25:54;;;;;;;;;;;;;;;;;;6186459;23;20406;-79
2022/09/20 00:28:20;;;;;;;;;;;;;;;;;;6186867;23;19912;-79
2022/09/20 00:30:45;;;;;;;;;;;;;;;;;;6186295;23;19955;-78
2022/09/20 00:33:10;;;;;;;;;;;;;;;;;;6186445;23;19998;-80
2022/09/20 00:35:36;;;;;;;;;;;;;;;;;;6160064;23;19904;-80
2022/09/20 00:38:01;;;;;;;;;;;;;;;;;;6186356;23;19959;-79
2022/09/20 00:40:26;;;;;;;;;;;;;;;;;;6186413;23;19908;-79
2022/09/20 00:42:52;;;;;;;;;;;;;;;;;;6186497;23;19960;-79
2022/09/20 00:45:17;;;;;;;;;;;;;;;;;;6186288;23;19904;-79
2022/09/20 00:47:42;;;;;;;;;;;;;;;;;;6186320;23;19962;-79
2022/09/20 00:50:07;;;;;;;;;;;;;;;;;;6186322;23;19908;-79
2022/09/20 00:52:33;;;;;;;;;;;;;;;;;;6186547;23;19908;-79
2022/09/20 00:54:58;;;;;;;;;;;;;;;;;;6186558;23;19904;-79
2022/09/20 00:57:23;;;;;;;;;;;;;;;;;;6186388;23;19908;-79
2022/09/20 00:59:49;;;;;;;;;;;;;;;;;;6187120;23;19904;-80
2022/09/20 01:02:14;;;;;;;;;;;;;;;;;;6186769;23;19908;-79
2022/09/20 01:04:40;;;;;;;;;;;;;;;;;;6186674;23;19908;-79
2022/09/20 01:07:05;;;;;;;;;;;;;;;;;;6187113;23;19908;-79
2022/09/20 01:09:30;;;;;;;;;;;;;;;;;;6160651;23;19999;-79
2022/09/20 01:11:56;;;;;;;;;;;;;;;;;;6187121;23;19996;-79
2022/09/20 01:14:22;;;;;;;;;;;;;;;;;;6187033;23;19922;-79
2022/09/20 01:16:47;;;;;;;;;;;;;;;;;;6186539;23;19908;-78
2022/09/20 01:19:13;;;;;;;;;;;;;;;;;;6186376;23;20231;-79
2022/09/20 01:21:38;;;;;;;;;;;;;;;;;;6186747;23;19914;-79
2022/09/20 01:24:03;;;;;;;;;;;;;;;;;;6186833;23;19904;-78
2022/09/20 01:26:29;;;;;;;;;;;;;;;;;;6186343;23;20331;-78
2022/09/20 01:28:54;;;;;;;;;;;;;;;;;;6186427;23;19908;-79
2022/09/20 01:31:19;;;;;;;;;;;;;;;;;;6159986;23;19912;-79
2022/09/20 01:33:45;;;;;;;;;;;;;;;;;;6186440;23;19904;-79
2022/09/20 01:36:10;;;;;;;;;;;;;;;;;;6160296;23;20272;-79
2022/09/20 01:38:35;;;;;;;;;;;;;;;;;;6186720;23;19910;-79
2022/09/20 01:41:02;;;;;;;;;;;;;;;;;;6186002;23;19908;-79
2022/09/20 01:43:27;;;;;;;;;;;;;;;;;;6186470;23;20359;-79
2022/09/20 01:45:53;;;;;;;;;;;;;;;;;;6185878;23;19908;-79
2022/09/20 01:48:18;;;;;;;;;;;;;;;;;;6186260;23;20282;-79
2022/09/20 01:50:44;;;;;;;;;;;;;;;;;;6185755;23;19912;-79
2022/09/20 01:53:09;;;;;;;;;;;;;;;;;;6185841;23;19904;-79
2022/09/20 01:55:34;;;;;;;;;;;;;;;;;;6186248;23;19908;-79
2022/09/20 01:58:00;;;;;;;;;;;;;;;;;;6159910;23;19994;-79
2022/09/20 02:00:25;;;;;;;;;;;;;;;;;;6185945;23;19914;-79
2022/09/20 02:02:50;;;;;;;;;;;;;;;;;;6159968;23;19904;-79
2022/09/20 02:05:16;;;;;;;;;;;;;;;;;;6185902;23;20359;-79
2022/09/20 02:07:41;;;;;;;;;;;;;;;;;;6159524;23;19911;-80
2022/09/20 02:10:06;;;;;;;;;;;;;;;;;;6185757;23;19912;-78
2022/09/20 02:12:32;;;;;;;;;;;;;;;;;;6186060;23;19966;-79
2022/09/20 02:14:57;;;;;;;;;;;;;;;;;;6159286;23;20284;-79
2022/09/20 02:17:22;;;;;;;;;;;;;;;;;;6185552;23;19904;-80
2022/09/20 02:19:48;;;;;;;;;;;;;;;;;;6185615;23;19908;-80
2022/09/20 02:22:13;;;;;;;;;;;;;;;;;;6186052;23;19982;-80
2022/09/20 02:24:38;;;;;;;;;;;;;;;;;;6185932;23;19936;-80
2022/09/20 02:27:04;;;;;;;;;;;;;;;;;;6185943;23;19904;-80
2022/09/20 02:29:29;;;;;;;;;;;;;;;;;;6159259;23;20336;-79
2022/09/20 02:31:55;;;;;;;;;;;;;;;;;;6185873;23;20008;-80
2022/09/20 02:34:20;;;;;;;;;;;;;;;;;;6185786;23;20587;-79
2022/09/20 02:36:46;;;;;;;;;;;;;;;;;;6185678;23;19904;-79
2022/09/20 02:39:11;;;;;;;;;;;;;;;;;;6185274;23;19908;-80
2022/09/20 02:41:36;;;;;;;;;;;;;;;;;;6185906;23;20347;-79
2022/09/20 02:44:02;;;;;;;;;;;;;;;;;;6185569;23;19912;-79
2022/09/20 02:46:27;;;;;;;;;;;;;;;;;;6185518;23;19904;-79
2022/09/20 02:48:52;;;;;;;;;;;;;;;;;;6185512;23;20004;-79
2022/09/20 02:51:18;;;;;;;;;;;;;;;;;;6185870;23;20340;-79
2022/09/20 02:53:43;;;;;;;;;;;;;;;;;;6185947;23;19908;-79
2022/09/20 02:56:09;;;;;;;;;;;;;;;;;;6185572;23;19907;-81
2022/09/20 02:58:34;;;;;;;;;;;;;;;;;;6159167;23;19931;-79
2022/09/20 03:00:59;;;;;;;;;;;;;;;;;;6186049;23;19992;-80
2022/09/20 03:03:25;;;;;;;;;;;;;;;;;;6185630;23;20008;-79
2022/09/20 03:05:50;;;;;;;;;;;;;;;;;;6185995;23;19927;-79
2022/09/20 03:08:16;;;;;;;;;;;;;;;;;;6185615;23;19915;-79
2022/09/20 03:10:41;;;;;;;;;;;;;;;;;;6185339;23;19915;-79
2022/09/20 03:13:06;;;;;;;;;;;;;;;;;;6185465;23;19908;-79
2022/09/20 03:15:32;;;;;;;;;;;;;;;;;;6154454;23;20209;-79
2022/09/20 03:17:57;;;;;;;;;;;;;;;;;;6154639;23;19959;-79
2022/09/20 03:20:23;;;;;;;;;;;;;;;;;;6155474;23;19912;-79
2022/09/20 03:22:48;;;;;;;;;;;;;;;;;;6155845;23;19909;-80
2022/09/20 03:25:14;;;;;;;;;;;;;;;;;;6155859;23;19987;-79
2022/09/20 03:27:39;;;;;;;;;;;;;;;;;;6155972;23;19913;-79
2022/09/20 03:30:05;;;;;;;;;;;;;;;;;;6154265;23;19908;-79
2022/09/20 03:32:30;;;;;;;;;;;;;;;;;;6155794;23;19908;-78
2022/09/20 03:34:55;;;;;;;;;;;;;;;;;;6155974;23;19910;-79
2022/09/20 03:37:21;;;;;;;;;;;;;;;;;;6155777;23;19916;-79
2022/09/20 03:39:47;;;;;;;;;;;;;;;;;;6155694;23;20335;-79
2022/09/20 03:42:12;;;;;;;;;;;;;;;;;;6156765;23;19909;-79
2022/09/20 03:44:38;;;;;;;;;;;;;;;;;;6157808;23;19935;-79
2022/09/20 03:47:03;;;;;;;;;;;;;;;;;;6157403;23;20444;-79
2022/09/20 03:49:28;;;;;;;;;;;;;;;;;;6156080;23;19909;-80
2022/09/20 03:51:54;;;;;;;;;;;;;;;;;;6157745;23;19909;-80
2022/09/20 03:54:19;;;;;;;;;;;;;;;;;;6156407;23;19908;-80
2022/09/20 03:56:45;;;;;;;;;;;;;;;;;;6156864;23;19909;-80
2022/09/20 03:59:10;;;;;;;;;;;;;;;;;;6157772;23;20222;-79
2022/09/20 04:01:35;;;;;;;;;;;;;;;;;;6157132;23;20584;-79
2022/09/20 04:04:00;;;;;;;;;;;;;;;;;;6155947;23;20202;-80
2022/09/20 04:06:26;;;;;;;;;;;;;;;;;;6157715;23;19936;-80
2022/09/20 04:08:51;;;;;;;;;;;;;;;;;;6157768;23;19964;-79
2022/09/20 04:11:16;;;;;;;;;;;;;;;;;;6155788;23;19908;-79
2022/09/20 04:13:42;;;;;;;;;;;;;;;;;;6162143;23;19919;-80
2022/09/20 04:16:07;;;;;;;;;;;;;;;;;;6186898;23;19908;-80
2022/09/20 04:18:33;;;;;;;;;;;;;;;;;;6186852;23;20320;-80
2022/09/20 04:20:58;;;;;;;;;;;;;;;;;;6187354;23;19908;-80
2022/09/20 04:23:23;;;;;;;;;;;;;;;;;;6160519;23;19987;-80
2022/09/20 04:25:49;;;;;;;;;;;;;;;;;;6187068;23;20336;-80
2022/09/20 04:28:14;;;;;;;;;;;;;;;;;;6191397;23;19904;-80
2022/09/20 04:30:42;;;;;;;;;;;;;;;;;;6186494;23;19963;-79
2022/09/20 04:33:08;;;;;;;;;;;;;;;;;;6186085;23;19986;-79
2022/09/20 04:38:17;;;;;;;;;;;;;;;;;;6187167;23;19915;-79
2022/09/20 04:40:43;;;;;;;;;;;;;;;;;;6187217;23;19904;-79
2022/09/20 04:43:08;;;;;;;;;;;;;;;;;;6160374;23;19918;-79
2022/09/20 04:45:33;;;;;;;;;;;;;;;;;;6187250;23;19950;-79
2022/09/20 04:47:59;;;;;;;;;;;;;;;;;;6186824;23;19908;-80
2022/09/20 04:50:24;;;;;;;;;;;;;;;;;;6186542;23;19946;-80
2022/09/20 04:52:54;;;;;;;;;;;;;;;;;;6186245;23;19908;-80
2022/09/20 04:55:20;;;;;;;;;;;;;;;;;;6160865;23;20264;-79
2022/09/20 04:57:45;;;;;;;;;;;;;;;;;;6186920;23;19908;-79
2022/09/20 05:00:11;;;;;;;;;;;;;;;;;;6187549;23;20307;-81
2022/09/20 05:02:38;;;;;;;;;;;;;;;;;;6161556;23;19908;-80
2022/09/20 05:05:04;;;;;;;;;;;;;;;;;;6187611;23;19927;-80
2022/09/20 05:07:29;;;;;;;;;;;;;;;;;;6188019;23;19912;-81
2022/09/20 05:09:54;;;;;;;;;;;;;;;;;;6187237;23;20300;-82
2022/09/20 05:12:20;;;;;;;;;;;;;;;;;;6188222;23;19966;-81
2022/09/20 05:14:45;;;;;;;;;;;;;;;;;;6161146;23;19916;-79
2022/09/20 05:17:10;;;;;;;;;;;;;;;;;;6187105;23;19978;-80
2022/09/20 05:19:36;;;;;;;;;;;;;;;;;;6187404;23;19904;-79
2022/09/20 05:22:01;;;;;;;;;;;;;;;;;;6187120;23;20223;-80
2022/09/20 05:24:26;;;;;;;;;;;;;;;;;;6187159;23;19956;-81
2022/09/20 05:26:52;;;;;;;;;;;;;;;;;;6162639;23;19908;-81
2022/09/20 05:29:17;;;;;;;;;;;;;;;;;;6187825;23;19963;-79
2022/09/20 05:31:43;;;;;;;;;;;;;;;;;;6162614;23;19908;-80
2022/09/20 05:34:10;;;;;;;;;;;;;;;;;;6188387;23;19904;-81
2022/09/20 05:36:35;;;;;;;;;;;;;;;;;;6188151;23;19914;-80
2022/09/20 05:39:00;;;;;;;;;;;;;;;;;;6187816;23;19905;-81
2022/09/20 05:41:29;;;;;;;;;;;;;;;;;;6187756;23;19915;-82
2022/09/20 05:43:54;;;;;;;;;;;;;;;;;;6187781;23;20259;-82
2022/09/20 05:46:20;;;;;;;;;;;;;;;;;;6187675;23;19912;-83
2022/09/20 05:48:45;;;;;;;;;;;;;;;;;;6161058;23;20336;-82
2022/09/20 05:51:37;;;;;;;;;;;;;;;;;;6187894;23;19915;-82
2022/09/20 05:54:04;;;;;;;;;;;;;;;;;;6161458;23;19915;-80
2022/09/20 05:56:29;;;;;;;;;;;;;;;;;;6189943;23;19904;-81
2022/09/20 05:58:54;;;;;;;;;;;;;;;;;;6166487;23;20253;-87
2022/09/20 06:01:20;;;;;;;;;;;;;;;;;;6163277;23;19908;-81
2022/09/20 06:03:47;;;;;;;;;;;;;;;;;;6161162;23;19915;-79
2022/09/20 06:06:12;;;;;;;;;;;;;;;;;;6161283;23;19911;-81
2022/09/20 06:08:37;;;;;;;;;;;;;;;;;;6187385;23;19908;-82
2022/09/20 06:11:03;;;;;;;;;;;;;;;;;;6161086;23;19990;-81
2022/09/20 06:13:30;;;;;;;;;;;;;;;;;;6160499;23;20331;-82
2022/09/20 06:15:56;;;;;;;;;;;;;;;;;;6188409;23;19931;-83
2022/09/20 06:18:21;;;;;;;;;;;;;;;;;;6188750;23;19912;-81
2022/09/20 06:20:46;;;;;;;;;;;;;;;;;;6165943;23;19911;-83
2022/09/20 06:23:13;;;;;;;;;;;;;;;;;;6169577;23;19908;-83
2022/09/20 06:25:41;;;;;;;;;;;;;;;;;;6169213;23;19904;-81
2022/09/20 06:28:07;;;;;;;;;;;;;;;;;;6161823;23;19908;-81
2022/09/20 06:30:32;;;;;;;;;;;;;;;;;;6162453;23;19915;-82
2022/09/20 06:32:57;;;;;;;;;;;;;;;;;;6162761;23;19908;-82
2022/09/20 06:35:23;;;;;;;;;;;;;;;;;;6188511;23;19958;-82
2022/09/20 06:43:18;;;;;;;;;;;;;;;;;;6161249;23;19912;-82
2022/09/20 06:45:44;;;;;;;;;;;;;;;;;;6160955;23;19904;-83
2022/09/20 06:48:12;;;;;;;;;;;;;;;;;;6165033;23;19958;-82
2022/09/20 06:50:37;;;;;;;;;;;;;;;;;;6165468;23;20310;-81
2022/09/20 06:53:02;;;;;;;;;;;;;;;;;;6163350;23;19936;-81
2022/09/20 06:55:28;;;;;;;;;;;;;;;;;;6190264;23;19908;-82
2022/09/20 06:57:53;;;;;;;;;;;;;;;;;;6163633;23;19976;-82
2022/09/20 07:00:19;;;;;;;;;;;;;;;;;;6188665;23;19911;-81
2022/09/20 07:02:45;;;;;;;;;;;;;;;;;;6162524;23;19912;-82
2022/09/20 07:05:10;;;;;;;;;;;;;;;;;;6162834;23;19977;-82
2022/09/20 07:07:36;;;;;;;;;;;;;;;;;;6189000;23;19912;-82
2022/09/20 07:10:01;;;;;;;;;;;;;;;;;;6173011;23;19915;-81
2022/09/20 07:12:27;;;;;;;;;;;;;;;;;;6168503;23;19909;-82
2022/09/20 07:14:52;;;;;;;;;;;;;;;;;;6163691;23;19990;-82
2022/09/20 07:17:20;;;;;;;;;;;;;;;;;;6193760;23;20434;-83
2022/09/20 07:19:46;;;;;;;;;;;;;;;;;;6162413;23;19908;-83
2022/09/20 07:22:11;;;;;;;;;;;;;;;;;;6189550;23;20038;-82
2022/09/20 07:24:37;;;;;;;;;;;;;;;;;;6189981;23;20368;-82
2022/09/20 07:27:03;;;;;;;;;;;;;;;;;;6164746;23;20368;-83
2022/09/20 07:29:28;;;;;;;;;;;;;;;;;;6163766;23;19986;-82
2022/09/20 07:31:53;;;;;;;;;;;;;;;;;;6163079;23;19908;-81
2022/09/20 07:34:19;;;;;;;;;;;;;;;;;;6166144;23;20347;-81
2022/09/20 07:36:44;;;;;;;;;;;;;;;;;;6166359;23;19915;-81
2022/09/20 07:39:09;;;;;;;;;;;;;;;;;;6161706;23;19995;-82
2022/09/20 07:41:35;;;;;;;;;;;;;;;;;;6165614;23;19935;-81
2022/09/20 07:44:19;;;;;;;;;;;;;;;;;;6162766;23;19912;-82
2022/09/20 07:46:46;;;;;;;;;;;;;;;;;;6160230;23;19908;-81
2022/09/20 07:49:12;;;;;;;;;;;;;;;;;;6161094;23;19908;-80
2022/09/20 07:51:37;;;;;;;;;;;;;;;;;;6162763;23;19975;-82
2022/09/20 07:54:02;;;;;;;;;;;;;;;;;;6164641;23;19911;-81
2022/09/20 07:56:28;;;;;;;;;;;;;;;;;;6166956;23;19946;-84
2022/09/20 07:58:53;;;;;;;;;;;;;;;;;;6170560;23;20323;-83
2022/09/20 08:01:20;;;;;;;;;;;;;;;;;;6195940;23;19908;-84
2022/09/20 08:03:46;;;;;;;;;;;;;;;;;;6170192;23;19904;-82
2022/09/20 08:06:15;;;;;;;;;;;;;;;;;;6165662;23;19940;-81
2022/09/20 08:08:40;;;;;;;;;;;;;;;;;;6169470;23;19941;-84
2022/09/20 08:11:06;;;;;;;;;;;;;;;;;;6166157;23;19908;-84
2022/09/20 08:13:31;;;;;;;;;;;;;;;;;;6168717;23;19908;-84
2022/09/20 08:15:56;;;;;;;;;;;;;;;;;;6163888;23;20396;-83
2022/09/20 08:18:26;;;;;;;;;;;;;;;;;;6189642;23;19908;-80
2022/09/20 08:20:52;;;;;;;;;;;;;;;;;;6190584;23;19915;-84
2022/09/20 08:23:17;;;;;;;;;;;;;;;;;;6190041;23;19904;-81
2022/09/20 08:25:42;;;;;;;;;;;;;;;;;;6162075;23;19908;-82
2022/09/20 08:28:08;;;;;;;;;;;;;;;;;;6191015;23;19927;-81
2022/09/20 08:30:33;;;;;;;;;;;;;;;;;;6165959;23;19916;-82
2022/09/20 08:32:59;;;;;;;;;;;;;;;;;;6191470;23;19904;-82
2022/09/20 08:35:25;;;;;;;;;;;;;;;;;;6165631;23;19967;-81
2022/09/20 08:37:53;;;;;;;;;;;;;;;;;;6190054;23;19904;-81
2022/09/20 08:40:21;;;;;;;;;;;;;;;;;;6190643;23;19908;-82
2022/09/20 08:42:47;;;;;;;;;;;;;;;;;;6164109;23;19950;-82
2022/09/20 08:45:12;;;;;;;;;;;;;;;;;;6164358;23;19908;-82
2022/09/20 08:47:38;;;;;;;;;;;;;;;;;;6164448;23;20315;-83
2022/09/20 08:50:03;;;;;;;;;;;;;;;;;;6162488;23;20328;-81
2022/09/20 08:52:29;;;;;;;;;;;;;;;;;;6163923;23;19904;-83
2022/09/20 08:54:56;;;;;;;;;;;;;;;;;;6164624;23;19908;-82
2022/09/20 08:57:22;;;;;;;;;;;;;;;;;;6164570;23;19910;-82
2022/09/20 08:59:49;;;;;;;;;;;;;;;;;;6165154;23;19908;-81
2022/09/20 09:02:14;;;;;;;;;;;;;;;;;;6189623;23;19982;-83
2022/09/20 09:04:40;;;;;;;;;;;;;;;;;;6164011;23;19962;-84
2022/09/20 09:07:06;;;;;;;;;;;;;;;;;;6164309;23;19903;-82
2022/09/20 09:09:31;;;;;;;;;;;;;;;;;;6164606;23;19967;-84
2022/09/20 09:12:00;;;;;;;;;;;;;;;;;;6164581;23;19904;-83
2022/09/20 09:17:10;;;;;;;;;;;;;;;;;;6191743;23;19927;-83
2022/09/20 09:19:36;;;;;;;;;;;;;;;;;;6164457;23;19939;-83
2022/09/20 09:22:01;;;;;;;;;;;;;;;;;;6189581;23;19908;-83
2022/09/20 09:24:26;;;;;;;;;;;;;;;;;;6188553;23;19904;-82
2022/09/20 09:26:52;;;;;;;;;;;;;;;;;;6163471;23;19956;-82
2022/09/20 09:29:17;;;;;;;;;;;;;;;;;;6163664;23;19908;-82
2022/09/20 09:31:44;;;;;;;;;;;;;;;;;;6165629;23;19956;-83
2022/09/20 09:34:09;;;;;;;;;;;;;;;;;;6165893;23;20328;-82
2022/09/20 09:36:34;;;;;;;;;;;;;;;;;;6191389;23;19930;-83
2022/09/20 09:39:00;;;;;;;;;;;;;;;;;;6164657;23;19909;-85
2022/09/20 09:41:25;;;;;;;;;;;;;;;;;;6166810;23;19908;-82
2022/09/20 09:43:50;;;;;;;;;;;;;;;;;;6191867;23;19927;-82
2022/09/20 09:46:16;;;;;;;;;;;;;;;;;;6191264;23;20333;-83
2022/09/20 09:48:42;;;;;;;;;;;;;;;;;;6166280;23;19946;-82
2022/09/20 09:51:07;;;;;;;;;;;;;;;;;;6164583;23;20356;-84
2022/09/20 09:53:35;;;;;;;;;;;;;;;;;;6163990;23;20316;-84
2022/09/20 09:56:00;;;;;;;;;;;;;;;;;;6166648;23;19999;-86
2022/09/20 09:58:26;;;;;;;;;;;;;;;;;;6167403;23;19904;-82
2022/09/20 10:00:52;;;;;;;;;;;;;;;;;;6191276;23;19916;-82
2022/09/20 10:03:17;;;;;;;;;;;;;;;;;;6189826;23;19904;-82
2022/09/20 10:05:43;;;;;;;;;;;;;;;;;;6164736;23;20332;-83
2022/09/20 10:08:09;;;;;;;;;;;;;;;;;;6166645;23;19904;-82
2022/09/20 10:10:38;;;;;;;;;;;;;;;;;;6190855;23;20256;-82
2022/09/20 10:13:03;;;;;;;;;;;;;;;;;;6165648;23;19948;-82
2022/09/20 10:15:29;;;;;;;;;;;;;;;;;;6190744;23;19916;-82
2022/09/20 10:17:54;;;;;;;;;;;;;;;;;;6194185;23;19910;-82
2022/09/20 10:20:20;;;;;;;;;;;;;;;;;;6191073;23;19912;-82
2022/09/20 10:22:45;;;;;;;;;;;;;;;;;;6164159;23;20351;-83
2022/09/20 10:25:10;;;;;;;;;;;;;;;;;;6189290;23;19908;-84
2022/09/20 10:27:36;;;;;;;;;;;;;;;;;;6165052;23;19911;-81
2022/09/20 10:30:01;;;;;;;;;;;;;;;;;;6165966;23;19916;-82
2022/09/20 10:32:27;;;;;;;;;;;;;;;;;;6162961;23;19904;-81
2022/09/20 10:34:52;;;;;;;;;;;;;;;;;;6167342;23;19978;-81
2022/09/20 10:37:18;;;;;;;;;;;;;;;;;;6166834;23;20332;-82
2022/09/20 10:39:43;;;;;;;;;;;;;;;;;;6168244;23;19908;-84
2022/09/20 10:44:53;;;;;;;;;;;;;;;;;;6165675;23;19912;-83
2022/09/20 10:47:21;;;;;;;;;;;;;;;;;;6166073;23;19911;-85
2022/09/20 10:49:47;;;;;;;;;;;;;;;;;;6168857;23;19912;-85
2022/09/20 10:52:13;;;;;;;;;;;;;;;;;;6166461;23;19988;-82
2022/09/20 10:54:38;;;;;;;;;;;;;;;;;;6188712;23;19986;-83
2022/09/20 10:57:04;;;;;;;;;;;;;;;;;;6163406;23;20351;-83
2022/09/20 10:59:29;;;;;;;;;;;;;;;;;;6165378;23;20322;-83
2022/09/20 11:01:54;;;;;;;;;;;;;;;;;;6162791;23;19937;-83
2022/09/20 11:04:20;;;;;;;;;;;;;;;;;;6189664;23;20042;-81
2022/09/20 11:06:45;;;;;;;;;;;;;;;;;;6190954;23;19927;-83
2022/09/20 11:09:11;;;;;;;;;;;;;;;;;;6164783;23;19935;-82
2022/09/20 11:11:36;;;;;;;;;;;;;;;;;;6162507;23;19904;-82
2022/09/20 11:14:01;;;;;;;;;;;;;;;;;;6190126;23;20050;-82
2022/09/20 11:16:27;;;;;;;;;;;;;;;;;;6188456;23;19904;-82
2022/09/20 11:18:53;;;;;;;;;;;;;;;;;;6166846;23;19939;-83
2022/09/20 11:21:18;;;;;;;;;;;;;;;;;;6189564;23;19904;-84
2022/09/20 11:23:44;;;;;;;;;;;;;;;;;;6192630;23;20034;-81
2022/09/20 11:26:10;;;;;;;;;;;;;;;;;;6162882;23;20458;-82
2022/09/20 11:28:35;;;;;;;;;;;;;;;;;;6162649;23;19919;-82
2022/09/20 11:31:00;;;;;;;;;;;;;;;;;;6164887;23;19907;-82
2022/09/20 11:33:26;;;;;;;;;;;;;;;;;;6189568;23;19981;-84
2022/09/20 11:35:51;;;;;;;;;;;;;;;;;;6191116;23;19908;-83
2022/09/20 11:38:17;;;;;;;;;;;;;;;;;;6163023;23;19908;-82
2022/09/20 11:40:42;;;;;;;;;;;;;;;;;;6162508;23;19911;-81
2022/09/20 11:43:07;;;;;;;;;;;;;;;;;;6162054;23;19966;-83
2022/09/20 11:45:33;;;;;;;;;;;;;;;;;;6161414;23;19904;-81
2022/09/20 11:47:58;;;;;;;;;;;;;;;;;;6160873;23;19958;-82
2022/09/20 11:50:24;;;;;;;;;;;;;;;;;;6161267;23;20000;-81
2022/09/20 11:52:49;;;;;;;;;;;;;;;;;;6190870;23;19927;-81
2022/09/20 11:55:15;;;;;;;;;;;;;;;;;;6166410;23;19955;-83
2022/09/20 11:57:40;;;;;;;;;;;;;;;;;;6165906;23;19962;-83
2022/09/20 12:00:08;;;;;;;;;;;;;;;;;;6165753;23;20332;-84
2022/09/20 12:02:41;;;;;;;;;;;;;;;;;;6169312;23;20248;-83
2022/09/20 12:05:06;;;;;;;;;;;;;;;;;;6168234;23;19982;-82
2022/09/20 12:07:31;;;;;;;;;;;;;;;;;;6167028;23;19904;-83
2022/09/20 12:09:57;;;;;;;;;;;;;;;;;;6193509;23;19912;-83
2022/09/20 12:12:23;;;;;;;;;;;;;;;;;;6165641;23;19951;-83
2022/09/20 12:14:48;;;;;;;;;;;;;;;;;;6191898;23;19916;-82
2022/09/20 12:17:14;;;;;;;;;;;;;;;;;;6168061;23;19907;-85
2022/09/20 12:19:39;;;;;;;;;;;;;;;;;;6169400;23;20195;-83
2022/09/20 12:22:05;;;;;;;;;;;;;;;;;;6167889;23;19904;-84
2022/09/20 12:24:31;;;;;;;;;;;;;;;;;;6166008;23;19915;-82
2022/09/20 12:26:56;;;;;;;;;;;;;;;;;;6165224;23;19904;-85
2022/09/20 12:29:22;;;;;;;;;;;;;;;;;;6189343;23;20251;-81
2022/09/20 12:31:47;;;;;;;;;;;;;;;;;;6162350;23;20271;-83
2022/09/20 12:34:12;;;;;;;;;;;;;;;;;;6162286;23;20358;-81
2022/09/20 12:36:38;;;;;;;;;;;;;;;;;;6163111;23;19948;-84
2022/09/20 12:39:04;;;;;;;;;;;;;;;;;;6189265;23;20357;-81
2022/09/20 12:41:29;;;;;;;;;;;;;;;;;;6190002;23;20371;-82
2022/09/20 12:43:54;;;;;;;;;;;;;;;;;;6162378;23;19912;-82
2022/09/20 12:46:20;;;;;;;;;;;;;;;;;;6163133;23;19955;-82
2022/09/20 12:48:45;;;;;;;;;;;;;;;;;;6162695;23;19908;-83
2022/09/20 12:53:55;;;;;;;;;;;;;;;;;;6166417;23;19998;-82
2022/09/20 12:56:20;;;;;;;;;;;;;;;;;;6163057;23;19904;-83
2022/09/20 12:58:45;;;;;;;;;;;;;;;;;;6162443;23;19908;-82
2022/09/20 13:01:11;;;;;;;;;;;;;;;;;;6189262;23;19904;-81
2022/09/20 13:03:36;;;;;;;;;;;;;;;;;;6164032;23;19908;-82
2022/09/20 13:06:01;;;;;;;;;;;;;;;;;;6187525;23;20343;-82
2022/09/20 13:08:27;;;;;;;;;;;;;;;;;;6161103;23;19908;-82
2022/09/20 13:10:54;;;;;;;;;;;;;;;;;;6189401;23;19914;-81
2022/09/20 13:13:19;;;;;;;;;;;;;;;;;;6161446;23;19941;-82
2022/09/20 13:15:44;;;;;;;;;;;;;;;;;;6163346;23;19923;-82
2022/09/20 13:18:10;;;;;;;;;;;;;;;;;;6162956;23;19916;-83
2022/09/20 13:20:35;;;;;;;;;;;;;;;;;;6162473;23;20328;-82
2022/09/20 13:23:01;;;;;;;;;;;;;;;;;;6188343;23;19908;-81
2022/09/20 13:25:27;;;;;;;;;;;;;;;;;;6163336;23;20370;-83
2022/09/20 13:27:52;;;;;;;;;;;;;;;;;;6164097;23;19981;-82
2022/09/20 13:30:18;;;;;;;;;;;;;;;;;;6161758;23;19994;-82
2022/09/20 13:32:43;;;;;;;;;;;;;;;;;;6162389;23;19939;-82
2022/09/20 13:35:08;;;;;;;;;;;;;;;;;;6189917;23;20244;-81
2022/09/20 13:37:34;;;;;;;;;;;;;;;;;;6161612;23;19908;-82
2022/09/20 13:39:59;;;;;;;;;;;;;;;;;;6161723;23;19908;-82
2022/09/20 13:42:25;;;;;;;;;;;;;;;;;;6187348;23;19958;-82
2022/09/20 13:44:50;;;;;;;;;;;;;;;;;;6162252;23;19947;-82
2022/09/20 13:47:16;;;;;;;;;;;;;;;;;;6187726;23;19959;-83
2022/09/20 13:49:41;;;;;;;;;;;;;;;;;;6187189;23;19915;-83
2022/09/20 13:52:06;;;;;;;;;;;;;;;;;;6160971;23;20288;-82
2022/09/20 13:54:32;;;;;;;;;;;;;;;;;;6162169;23;19991;-83
2022/09/20 13:56:57;;;;;;;;;;;;;;;;;;6161608;23;19916;-83
2022/09/20 13:59:22;;;;;;;;;;;;;;;;;;6188067;23;19934;-83
2022/09/20 14:01:48;;;;;;;;;;;;;;;;;;6162045;23;19908;-82
2022/09/20 14:04:13;;;;;;;;;;;;;;;;;;6163510;23;19911;-82
2022/09/20 14:06:38;;;;;;;;;;;;;;;;;;6163218;23;20003;-84
2022/09/20 14:09:04;;;;;;;;;;;;;;;;;;6164434;23;19936;-82
2022/09/20 14:11:30;;;;;;;;;;;;;;;;;;6187621;23;19916;-83
2022/09/20 14:13:55;;;;;;;;;;;;;;;;;;6187990;23;19922;-81
2022/09/20 14:16:21;;;;;;;;;;;;;;;;;;6188622;23;19908;-84
2022/09/20 14:18:46;;;;;;;;;;;;;;;;;;6162047;23;19904;-83
2022/09/20 14:21:12;;;;;;;;;;;;;;;;;;6161621;23;19908;-82
2022/09/20 14:23:37;;;;;;;;;;;;;;;;;;6161102;23;19911;-83
2022/09/20 14:26:03;;;;;;;;;;;;;;;;;;6160935;23;19908;-82
2022/09/20 14:28:28;;;;;;;;;;;;;;;;;;6187047;23;19904;-81
2022/09/20 14:30:55;;;;;;;;;;;;;;;;;;6161352;23;19959;-82
2022/09/20 14:33:20;;;;;;;;;;;;;;;;;;6192472;23;19904;-82
2022/09/20 14:35:46;;;;;;;;;;;;;;;;;;6160154;23;20259;-82
2022/09/20 14:38:11;;;;;;;;;;;;;;;;;;6188841;23;19904;-82
2022/09/20 14:40:36;;;;;;;;;;;;;;;;;;6187506;23;20225;-81
2022/09/20 14:43:02;;;;;;;;;;;;;;;;;;6161563;23;19908;-82
2022/09/20 14:45:27;;;;;;;;;;;;;;;;;;6160974;23;19912;-82
2022/09/20 14:47:53;;;;;;;;;;;;;;;;;;6162234;23;19904;-81
2022/09/20 14:50:18;;;;;;;;;;;;;;;;;;6160704;23;20328;-83
2022/09/20 14:52:44;;;;;;;;;;;;;;;;;;6160127;23;19904;-81
2022/09/20 14:55:09;;;;;;;;;;;;;;;;;;6161026;23;20268;-82
2022/09/20 14:57:34;;;;;;;;;;;;;;;;;;6160353;23;19904;-83
2022/09/20 15:00:00;;;;;;;;;;;;;;;;;;6188500;23;19958;-83
2022/09/20 15:02:25;;;;;;;;;;;;;;;;;;6162332;23;19911;-83
2022/09/20 15:04:51;;;;;;;;;;;;;;;;;;6187263;23;19912;-82
2022/09/20 15:07:16;;;;;;;;;;;;;;;;;;6160838;23;19950;-81
2022/09/20 15:09:42;;;;;;;;;;;;;;;;;;6187342;23;19912;-83
2022/09/20 15:12:08;;;;;;;;;;;;;;;;;;6188189;23;19936;-83
2022/09/20 15:14:33;;;;;;;;;;;;;;;;;;6160432;23;19981;-81
2022/09/20 15:16:59;;;;;;;;;;;;;;;;;;6162019;23;19911;-81
2022/09/20 15:19:25;;;;;;;;;;;;;;;;;;6162541;23;19908;-85
2022/09/20 15:21:50;;;;;;;;;;;;;;;;;;6165959;23;19927;-81
2022/09/20 15:24:17;;;;;;;;;;;;;;;;;;6163329;23;19911;-82
2022/09/20 15:26:43;;;;;;;;;;;;;;;;;;6162394;23;19927;-82
2022/09/20 15:29:09;;;;;;;;;;;;;;;;;;6162232;23;19912;-82
2022/09/20 15:31:34;;;;;;;;;;;;;;;;;;6162405;23;19971;-83
2022/09/20 15:33:59;;;;;;;;;;;;;;;;;;6188546;23;20279;-84
2022/09/20 15:36:30;;;;;;;;;;;;;;;;;;6162391;23;19986;-82
2022/09/20 15:38:56;;;;;;;;;;;;;;;;;;6188051;23;20011;-81
2022/09/20 15:41:21;;;;;;;;;;;;;;;;;;6160863;23;19904;-82
2022/09/20 15:43:48;;;;;;;;;;;;;;;;;;6162826;23;19915;-80
2022/09/20 15:46:13;;;;;;;;;;;;;;;;;;6161357;23;20236;-81
2022/09/20 15:48:39;;;;;;;;;;;;;;;;;;6186511;23;19908;-83
2022/09/20 15:51:05;;;;;;;;;;;;;;;;;;6161001;23;19983;-82
2022/09/20 15:53:32;;;;;;;;;;;;;;;;;;6162431;23;20259;-81
2022/09/20 15:56:01;;;;;;;;;;;;;;;;;;6186942;23;20392;-82
2022/09/20 15:58:26;;;;;;;;;;;;;;;;;;6186905;23;19955;-82
2022/09/20 16:00:52;;;;;;;;;;;;;;;;;;6186887;23;19904;-82
2022/09/20 16:03:17;;;;;;;;;;;;;;;;;;6161208;23;19936;-82
2022/09/20 16:05:42;;;;;;;;;;;;;;;;;;6161765;23;19907;-81
2022/09/20 16:08:08;;;;;;;;;;;;;;;;;;6161667;23;20368;-82
2022/09/20 16:10:33;;;;;;;;;;;;;;;;;;6161230;23;20255;-82
2022/09/20 16:12:58;;;;;;;;;;;;;;;;;;6187470;23;19941;-83
2022/09/20 16:15:24;;;;;;;;;;;;;;;;;;6155019;23;20403;-81
2022/09/20 16:20:33;;;;;;;;;;;;;;;;;;6157297;23;19964;-83
2022/09/20 16:22:58;;;;;;;;;;;;;;;;;;6157041;23;19904;-82
2022/09/20 16:25:24;;;;;;;;;;;;;;;;;;6156676;23;19978;-81
2022/09/20 16:27:49;;;;;;;;;;;;;;;;;;6156160;23;19931;-81
2022/09/20 16:30:15;;;;;;;;;;;;;;;;;;6155308;23;20252;-83
2022/09/20 16:32:40;;;;;;;;;;;;;;;;;;6155453;23;20251;-82
2022/09/20 16:35:06;;;;;;;;;;;;;;;;;;6155515;23;20224;-83
2022/09/20 16:37:32;;;;;;;;;;;;;;;;;;6157746;23;19908;-84
2022/09/20 16:39:57;;;;;;;;;;;;;;;;;;6156933;23;20300;-82
2022/09/20 16:42:23;;;;;;;;;;;;;;;;;;6156845;23;19959;-82
2022/09/20 16:44:48;;;;;;;;;;;;;;;;;;6158286;23;19912;-82
2022/09/20 16:47:20;;;;;;;;;;;;;;;;;;6155751;23;19995;-82
2022/09/20 16:49:47;;;;;;;;;;;;;;;;;;6159094;23;19920;-83
2022/09/20 16:52:12;;;;;;;;;;;;;;;;;;6157879;23;19911;-83
2022/09/20 16:54:37;;;;;;;;;;;;;;;;;;6157209;23;19908;-81